createdAt,value
2018-05-23T00:00:04.130Z,6.00
2018-05-23T00:02:32.386Z,4.90
2018-05-23T00:05:01.421Z,4.57
2018-05-23T00:07:29.778Z,4.50
2018-05-23T00:09:58.811Z,5.43
2018-05-23T00:12:27.066Z,5.17
2018-05-23T00:14:56.104Z,4.23
2018-05-23T00:17:24.443Z,5.73
2018-05-23T00:19:53.467Z,8.47
2018-05-23T00:22:21.741Z,5.00
2018-05-23T00:24:49.986Z,5.00
2018-05-23T00:27:18.251Z,6.80
2018-05-23T00:29:48.011Z,7.53
2018-05-23T00:32:17.224Z,5.95
2018-05-23T00:34:45.500Z,4.90
2018-05-23T00:37:13.771Z,7.93
2018-05-23T00:39:42.051Z,6.23
2018-05-23T00:42:10.323Z,5.00
2018-05-23T00:44:38.603Z,5.53
2018-05-23T00:47:07.619Z,4.47
2018-05-23T00:49:35.883Z,7.18
2018-05-23T00:52:04.170Z,5.17
2018-05-23T00:54:32.435Z,4.77
2018-05-23T00:57:01.462Z,5.07
2018-05-23T00:59:29.718Z,5.80
2018-05-23T01:01:58.827Z,6.10
2018-05-23T01:04:27.895Z,5.00
2018-05-23T01:06:56.940Z,5.20
2018-05-23T01:09:25.204Z,6.47
2018-05-23T01:11:53.471Z,7.13
2018-05-23T01:14:22.495Z,5.70
2018-05-23T01:16:50.759Z,5.30
2018-05-23T01:19:19.784Z,5.33
2018-05-23T01:21:48.035Z,7.13
2018-05-23T01:24:16.304Z,5.00
2018-05-23T01:26:45.314Z,5.23
2018-05-23T01:29:13.585Z,5.30
2018-05-23T01:31:42.700Z,8.03
2018-05-23T01:34:10.960Z,6.87
2018-05-23T01:36:41.220Z,7.03
2018-05-23T01:39:09.483Z,5.63
2018-05-23T01:41:37.734Z,5.37
2018-05-23T01:44:06.782Z,5.47
2018-05-23T01:46:35.167Z,6.23
2018-05-23T01:49:21.439Z,4.53
2018-05-23T01:51:49.732Z,8.07
2018-05-23T01:54:18.003Z,6.57
2018-05-23T01:56:46.259Z,8.50
2018-05-23T01:59:15.290Z,5.33
2018-05-23T02:01:43.714Z,5.50
2018-05-23T02:04:11.976Z,4.73
2018-05-23T02:06:40.233Z,4.33
2018-05-23T02:09:08.498Z,4.50
2018-05-23T02:11:37.555Z,4.83
2018-05-23T02:14:05.827Z,8.03
2018-05-23T02:16:34.100Z,4.93
2018-05-23T02:19:02.366Z,6.27
2018-05-23T02:21:30.647Z,4.07
2018-05-23T02:23:59.207Z,4.53
2018-05-23T02:26:27.463Z,5.30
2018-05-23T02:28:56.489Z,5.37
2018-05-23T02:31:24.763Z,4.55
2018-05-23T02:33:53.787Z,5.77
2018-05-23T02:36:22.051Z,4.63
2018-05-23T02:38:50.310Z,4.50
2018-05-23T02:41:19.349Z,5.20
2018-05-23T02:43:47.608Z,8.10
2018-05-23T02:46:19.663Z,4.00
2018-05-23T02:48:48.697Z,4.47
2018-05-23T02:51:16.946Z,5.60
2018-05-23T02:53:45.202Z,6.57
2018-05-23T02:56:14.237Z,5.93
2018-05-23T02:58:44.667Z,7.00
2018-05-23T03:01:12.923Z,6.23
2018-05-23T03:03:42.038Z,5.57
2018-05-23T03:06:10.308Z,5.03
2018-05-23T03:08:39.337Z,5.00
2018-05-23T03:11:07.598Z,5.30
2018-05-23T03:13:35.874Z,4.87
2018-05-23T03:16:05.207Z,4.87
2018-05-23T03:18:33.480Z,4.63
2018-05-23T03:21:02.359Z,7.05
2018-05-23T03:23:31.455Z,6.10
2018-05-23T03:25:59.710Z,5.77
2018-05-23T03:28:28.749Z,6.07
2018-05-23T03:30:57.013Z,4.90
2018-05-23T03:33:26.031Z,5.33
2018-05-23T03:35:54.290Z,6.17
2018-05-23T03:38:23.324Z,4.87
2018-05-23T03:40:51.598Z,6.00
2018-05-23T03:43:19.869Z,5.30
2018-05-23T03:45:48.125Z,7.67
2018-05-23T03:48:16.399Z,4.60
2018-05-23T03:50:45.591Z,5.10
2018-05-23T03:53:15.052Z,5.15
2018-05-23T03:55:43.304Z,6.63
2018-05-23T03:58:12.336Z,5.67
2018-05-23T04:04:11.491Z,6.57
2018-05-23T04:06:57.782Z,4.60
2018-05-23T04:09:26.808Z,5.60
2018-05-23T04:11:55.130Z,4.97
2018-05-23T04:14:24.561Z,5.05
2018-05-23T04:16:53.675Z,4.93
2018-05-23T04:19:21.931Z,5.17
2018-05-23T04:21:50.947Z,5.40
2018-05-23T04:24:19.218Z,7.83
2018-05-23T04:26:48.237Z,4.40
2018-05-23T04:29:16.504Z,4.43
2018-05-23T04:31:45.539Z,5.57
2018-05-23T04:34:13.814Z,4.27
2018-05-23T04:36:42.063Z,7.83
2018-05-23T04:39:11.215Z,4.80
2018-05-23T04:41:39.451Z,5.63
2018-05-23T04:44:07.699Z,4.95
2018-05-23T04:46:36.624Z,4.62
2018-05-23T04:49:04.927Z,4.33
2018-05-23T04:51:33.198Z,6.33
2018-05-23T04:54:01.460Z,6.07
2018-05-23T04:56:30.486Z,4.37
2018-05-23T04:58:58.746Z,4.33
2018-05-23T05:01:27.020Z,5.50
2018-05-23T05:03:56.036Z,4.20
2018-05-23T05:06:24.300Z,4.17
2018-05-23T05:08:52.559Z,5.03
2018-05-23T05:11:21.597Z,4.83
2018-05-23T05:13:49.932Z,4.63
2018-05-23T05:16:18.887Z,4.27
2018-05-23T05:18:47.147Z,5.50
2018-05-23T05:21:15.411Z,4.20
2018-05-23T05:23:44.460Z,3.35
2018-05-23T05:26:12.795Z,4.20
2018-05-23T05:28:41.834Z,6.20
2018-05-23T05:31:10.080Z,3.25
2018-05-23T05:33:38.347Z,3.00
2018-05-23T05:36:07.380Z,3.70
2018-05-23T05:38:35.635Z,4.18
2018-05-23T05:41:03.910Z,3.30
2018-05-23T05:43:32.925Z,7.55
2018-05-23T05:46:01.195Z,4.10
2018-05-23T05:48:29.456Z,3.90
2018-05-23T05:50:58.488Z,3.87
2018-05-23T05:53:26.744Z,5.15
2018-05-23T05:55:55.768Z,5.27
2018-05-23T05:58:24.016Z,4.70
2018-05-23T06:00:53.048Z,5.65
2018-05-23T06:03:21.299Z,5.57
2018-05-23T06:05:50.330Z,4.47
2018-05-23T06:08:18.593Z,5.68
2018-05-23T06:10:46.842Z,4.72
2018-05-23T06:13:15.115Z,6.00
2018-05-23T06:15:43.388Z,5.07
2018-05-23T06:18:11.724Z,5.20
2018-05-23T06:20:39.988Z,5.30
2018-05-23T06:23:09.092Z,5.43
2018-05-23T06:25:37.381Z,5.62
2018-05-23T06:28:05.648Z,6.47
2018-05-23T06:30:34.675Z,7.63
2018-05-23T06:33:03.784Z,7.88
2018-05-23T06:35:32.055Z,6.60
2018-05-23T06:38:00.329Z,7.03
2018-05-23T06:40:28.581Z,7.03
2018-05-23T06:42:57.606Z,5.80
2018-05-23T06:45:25.881Z,6.40
2018-05-23T06:47:54.151Z,5.77
2018-05-23T06:50:22.407Z,5.83
2018-05-23T06:52:51.440Z,5.97
2018-05-23T06:55:19.699Z,5.53
2018-05-23T06:57:48.732Z,5.00
2018-05-23T07:00:16.995Z,5.33
2018-05-23T07:02:45.336Z,5.35
2018-05-23T07:05:15.594Z,5.25
2018-05-23T07:07:43.890Z,6.20
2018-05-23T07:10:12.154Z,6.20
2018-05-23T07:12:41.207Z,6.45
2018-05-23T07:15:09.539Z,4.68
2018-05-23T07:17:37.819Z,5.65
2018-05-23T07:20:06.834Z,4.90
2018-05-23T07:22:35.087Z,6.13
2018-05-23T07:25:04.115Z,5.10
2018-05-23T07:27:32.386Z,5.53
2018-05-23T07:30:00.646Z,7.03
2018-05-23T07:32:29.751Z,6.90
2018-05-23T07:34:58.778Z,7.13
2018-05-23T07:37:27.874Z,6.44
2018-05-23T07:39:56.131Z,5.10
2018-05-23T07:42:25.248Z,6.22
2018-05-23T07:44:53.503Z,5.50
2018-05-23T07:47:22.527Z,4.93
2018-05-23T07:49:50.796Z,5.20
2018-05-23T07:52:19.084Z,5.60
2018-05-23T07:54:47.335Z,6.47
2018-05-23T07:57:16.367Z,5.22
2018-05-23T07:59:44.613Z,5.82
2018-05-23T08:02:13.644Z,5.50
2018-05-23T08:04:41.920Z,7.47
2018-05-23T08:07:10.192Z,5.33
2018-05-23T08:09:39.491Z,4.92
2018-05-23T08:12:07.754Z,5.25
2018-05-23T08:14:36.789Z,4.57
2018-05-23T08:17:05.055Z,5.47
2018-05-23T08:19:33.327Z,7.05
2018-05-23T08:22:02.435Z,5.10
2018-05-23T08:24:30.751Z,5.13
2018-05-23T08:26:59.745Z,4.80
2018-05-23T08:29:28.095Z,5.22
2018-05-23T08:31:56.349Z,5.57
2018-05-23T08:34:25.389Z,6.53
2018-05-23T08:36:53.647Z,6.40
2018-05-23T08:39:22.674Z,5.60
2018-05-23T08:41:51.131Z,6.46
2018-05-23T08:44:19.406Z,5.50
2018-05-23T08:46:48.424Z,6.40
2018-05-23T08:49:16.691Z,5.80
2018-05-23T08:51:45.716Z,4.82
2018-05-23T08:54:13.989Z,4.93
2018-05-23T08:56:42.251Z,5.40
2018-05-23T08:59:11.356Z,5.27
2018-05-23T09:01:39.609Z,6.18
2018-05-23T09:04:08.645Z,5.25
2018-05-23T09:06:36.895Z,6.30
2018-05-23T09:09:06.749Z,5.17
2018-05-23T09:11:35.007Z,5.03
2018-05-23T09:14:03.278Z,9.38
2018-05-23T09:16:32.313Z,4.37
2018-05-23T09:19:03.057Z,3.93
2018-05-23T09:21:31.433Z,4.50
2018-05-23T09:23:59.700Z,5.12
2018-05-23T09:26:27.951Z,4.47
2018-05-23T09:28:56.979Z,5.40
2018-05-23T09:31:25.235Z,4.37
2018-05-23T09:33:54.267Z,5.28
2018-05-23T09:36:22.528Z,7.25
2018-05-23T09:38:50.787Z,5.82
2018-05-23T09:41:19.799Z,6.07
2018-05-23T09:43:48.087Z,4.28
2018-05-23T09:46:16.356Z,4.97
2018-05-23T09:48:45.394Z,14.00
2018-05-23T09:51:13.656Z,4.10
2018-05-23T09:53:41.924Z,4.97
2018-05-23T09:56:10.202Z,8.50
2018-05-23T09:58:38.479Z,4.45
2018-05-23T10:01:07.504Z,4.23
2018-05-23T10:03:35.758Z,4.30
2018-05-23T10:06:04.046Z,3.60
2018-05-23T10:08:32.319Z,4.72
2018-05-23T10:11:01.332Z,3.50
2018-05-23T10:13:29.632Z,5.23
2018-05-23T10:15:57.883Z,3.80
2018-05-23T10:18:26.134Z,4.00
2018-05-23T10:20:55.171Z,4.12
2018-05-23T10:23:23.414Z,5.23
2018-05-23T10:25:52.468Z,3.60
2018-05-23T10:28:20.724Z,3.87
2018-05-23T10:30:48.998Z,4.75
2018-05-23T10:33:18.132Z,4.00
2018-05-23T10:35:46.389Z,4.03
2018-05-23T10:38:14.645Z,4.15
2018-05-23T10:40:43.672Z,3.60
2018-05-23T10:43:11.936Z,5.20
2018-05-23T10:45:40.963Z,4.13
2018-05-23T10:48:09.228Z,4.00
2018-05-23T10:50:37.487Z,4.32
2018-05-23T10:53:06.603Z,4.55
2018-05-23T10:55:34.872Z,4.67
2018-05-23T10:58:03.891Z,3.93
2018-05-23T11:00:33.819Z,5.37
2018-05-23T11:03:02.131Z,3.53
2018-05-23T11:05:30.365Z,3.50
2018-05-23T11:07:58.628Z,4.75
2018-05-23T11:10:27.739Z,4.00
2018-05-23T11:12:55.995Z,3.70
2018-05-23T11:15:25.029Z,4.72
2018-05-23T11:17:53.278Z,3.90
2018-05-23T11:20:22.303Z,5.35
2018-05-23T11:22:51.528Z,4.16
2018-05-23T11:25:19.923Z,5.50
2018-05-23T11:27:48.189Z,3.73
2018-05-23T11:30:16.442Z,5.23
2018-05-23T11:32:44.694Z,4.20
2018-05-23T11:35:13.737Z,4.78
2018-05-23T11:37:41.987Z,4.20
2018-05-23T11:40:11.139Z,6.95
2018-05-23T11:42:39.398Z,4.43
2018-05-23T11:45:07.673Z,5.55
2018-05-23T11:47:35.939Z,5.12
2018-05-23T11:50:04.239Z,5.00
2018-05-23T11:52:32.501Z,4.97
2018-05-23T11:55:01.532Z,4.70
2018-05-23T11:57:29.788Z,5.12
2018-05-23T11:59:58.055Z,7.10
2018-05-23T12:02:27.084Z,5.00
2018-05-23T12:04:55.347Z,5.75
2018-05-23T12:07:23.608Z,4.40
2018-05-23T12:09:52.639Z,5.60
2018-05-23T12:12:20.895Z,5.87
2018-05-23T12:14:49.936Z,4.57
2018-05-23T12:17:18.191Z,4.32
2018-05-23T12:19:46.607Z,5.37
2018-05-23T12:22:14.739Z,5.33
2018-05-23T12:24:43.007Z,8.77
2018-05-23T12:27:12.033Z,7.32
2018-05-23T12:29:40.296Z,7.97
2018-05-23T12:32:08.546Z,7.77
2018-05-23T12:34:37.571Z,5.07
2018-05-23T12:37:06.496Z,6.10
2018-05-23T12:39:34.761Z,8.50
2018-05-23T12:42:03.030Z,7.30
2018-05-23T12:44:32.046Z,4.47
2018-05-23T12:47:00.321Z,6.80
2018-05-23T12:49:28.566Z,7.05
2018-05-23T12:51:57.610Z,4.70
2018-05-23T12:54:25.864Z,7.13
2018-05-23T12:56:55.205Z,5.57
2018-05-23T12:59:23.456Z,5.75
2018-05-23T13:01:51.745Z,4.55
2018-05-23T13:04:20.015Z,5.13
2018-05-23T13:06:48.283Z,9.47
2018-05-23T13:09:18.963Z,8.65
2018-05-23T13:11:47.231Z,4.62
2018-05-23T13:14:15.490Z,5.13
2018-05-23T13:16:44.511Z,6.57
2018-05-23T13:19:12.766Z,5.37
2018-05-23T13:21:41.038Z,4.55
2018-05-23T13:24:10.067Z,4.67
2018-05-23T13:26:38.341Z,5.90
2018-05-23T13:29:06.605Z,4.40
2018-05-23T13:31:35.632Z,5.53
2018-05-23T13:34:03.886Z,5.10
2018-05-23T13:36:32.182Z,4.70
2018-05-23T13:39:00.478Z,4.50
2018-05-23T13:41:30.698Z,5.82
2018-05-23T13:43:58.959Z,4.57
2018-05-23T13:46:27.971Z,4.67
2018-05-23T13:48:56.226Z,4.53
2018-05-23T13:51:25.271Z,5.93
2018-05-23T13:53:53.526Z,5.50
2018-05-23T13:56:21.792Z,5.10
2018-05-23T13:58:50.047Z,4.63
2018-05-23T14:01:19.088Z,5.85
2018-05-23T14:03:47.339Z,4.65
2018-05-23T14:06:16.376Z,5.50
2018-05-23T14:08:44.739Z,5.03
2018-05-23T14:11:13.011Z,5.83
2018-05-23T14:13:41.304Z,6.15
2018-05-23T14:16:09.566Z,4.53
2018-05-23T14:18:38.584Z,5.70
2018-05-23T14:21:06.853Z,7.10
2018-05-23T14:23:35.109Z,5.62
2018-05-23T14:26:04.136Z,6.18
2018-05-23T14:28:32.426Z,4.87
2018-05-23T14:31:00.666Z,4.53
2018-05-23T14:33:29.701Z,5.43
2018-05-23T14:35:58.655Z,4.87
2018-05-23T14:38:27.691Z,4.93
2018-05-23T14:40:55.944Z,5.43
2018-05-23T14:43:25.044Z,5.57
2018-05-23T14:45:53.334Z,5.95
2018-05-23T14:48:22.451Z,6.05
2018-05-23T14:50:50.701Z,5.20
2018-05-23T14:53:19.735Z,4.97
2018-05-23T14:55:47.982Z,7.37
2018-05-23T14:58:17.328Z,4.85
2018-05-23T15:00:45.575Z,4.47
2018-05-23T15:03:14.687Z,5.93
2018-05-23T15:05:42.955Z,5.15
2018-05-23T15:08:11.959Z,5.43
2018-05-23T15:10:40.230Z,6.45
2018-05-23T15:13:09.319Z,7.47
2018-05-23T15:15:39.080Z,5.70
2018-05-23T15:18:07.454Z,6.60
2018-05-23T15:20:35.714Z,5.60
2018-05-23T15:23:03.984Z,7.43
2018-05-23T15:25:33.015Z,7.47
2018-05-23T15:28:01.275Z,5.37
2018-05-23T15:30:29.581Z,6.28
2018-05-23T15:32:57.841Z,4.90
2018-05-23T15:35:26.171Z,5.82
2018-05-23T15:37:54.431Z,5.75
2018-05-23T15:40:22.681Z,7.07
2018-05-23T15:42:51.707Z,8.77
2018-05-23T15:45:19.976Z,5.50
2018-05-23T15:47:48.232Z,4.73
2018-05-23T15:50:17.259Z,7.32
2018-05-23T15:52:45.518Z,7.80
2018-05-23T15:55:13.770Z,5.27
2018-05-23T15:57:42.812Z,6.63
2018-05-23T16:00:11.668Z,6.58
2018-05-23T16:02:40.700Z,8.07
2018-05-23T16:05:08.963Z,6.50
2018-05-23T16:07:38.069Z,7.93
2018-05-23T16:10:06.361Z,6.78
2018-05-23T16:12:34.603Z,7.20
2018-05-23T16:15:03.656Z,9.70
2018-05-23T16:17:31.924Z,10.30
2018-05-23T16:20:00.198Z,10.65
2018-05-23T16:22:28.459Z,10.50
2018-05-23T16:24:57.584Z,11.40
2018-05-23T16:27:25.840Z,10.17
2018-05-23T16:29:55.397Z,12.35
2018-05-23T16:32:24.772Z,13.06
2018-05-23T16:34:53.045Z,9.77
2018-05-23T16:37:22.088Z,11.63
2018-05-23T16:39:50.340Z,11.15
2018-05-23T16:42:18.606Z,13.38
2018-05-23T16:44:46.883Z,9.68
2018-05-23T16:47:15.999Z,9.43
2018-05-23T16:49:44.271Z,11.20
2018-05-23T16:52:12.601Z,8.95
2018-05-23T16:54:41.650Z,6.87
2018-05-23T16:57:09.902Z,10.88
2018-05-23T16:59:39.075Z,9.87
2018-05-23T17:02:07.332Z,9.60
2018-05-23T17:04:36.098Z,8.42
2018-05-23T17:07:05.135Z,10.97
2018-05-23T17:09:33.415Z,7.57
2018-05-23T17:12:01.672Z,8.20
2018-05-23T17:14:30.043Z,8.60
2018-05-23T17:16:58.333Z,12.15
2018-05-23T17:19:26.617Z,8.37
2018-05-23T17:21:54.885Z,9.17
2018-05-23T17:24:23.157Z,11.07
2018-05-23T17:26:52.189Z,11.43
2018-05-23T17:29:20.467Z,10.80
2018-05-23T17:31:48.739Z,10.80
2018-05-23T17:34:16.994Z,8.13
2018-05-23T17:36:46.028Z,8.30
2018-05-23T17:39:14.283Z,7.67
2018-05-23T17:41:43.306Z,8.30
2018-05-23T17:44:11.987Z,8.90
2018-05-23T17:46:41.583Z,6.70
2018-05-23T17:49:09.835Z,7.33
2018-05-23T17:51:38.871Z,6.63
2018-05-23T17:54:07.141Z,6.15
2018-05-23T17:56:36.350Z,6.17
2018-05-23T17:59:04.599Z,7.70
2018-05-23T18:01:33.639Z,6.43
2018-05-23T18:04:01.891Z,6.97
2018-05-23T18:06:30.977Z,6.60
2018-05-23T18:09:01.667Z,7.35
2018-05-23T18:11:29.914Z,8.13
2018-05-23T18:14:00.272Z,6.00
2018-05-23T18:16:28.544Z,6.50
2018-05-23T18:18:56.807Z,8.80
2018-05-23T18:21:25.078Z,10.17
2018-05-23T18:23:54.100Z,6.70
2018-05-23T18:26:22.368Z,7.10
2018-05-23T18:28:50.625Z,6.83
2018-05-23T18:31:19.663Z,5.77
2018-05-23T18:33:47.914Z,6.13
2018-05-23T18:36:16.931Z,6.13
2018-05-23T18:38:45.473Z,4.90
2018-05-23T18:41:14.964Z,6.37
2018-05-23T18:43:43.224Z,4.97
2018-05-23T18:46:11.488Z,5.40
2018-05-23T18:48:39.748Z,6.60
2018-05-23T18:51:08.772Z,5.80
2018-05-23T18:53:37.031Z,7.37
2018-05-23T18:56:06.058Z,6.87
2018-05-23T18:58:34.318Z,8.73
2018-05-23T19:01:02.571Z,6.63
2018-05-23T19:03:31.605Z,6.00
2018-05-23T19:05:59.887Z,7.47
2018-05-23T19:08:28.139Z,8.17
2018-05-23T19:10:57.166Z,7.00
2018-05-23T19:13:25.427Z,7.73
2018-05-23T19:15:54.470Z,7.57
2018-05-23T19:18:22.730Z,7.43
2018-05-23T19:20:50.990Z,7.80
2018-05-23T19:23:20.820Z,7.03
2018-05-23T19:25:49.083Z,7.40
2018-05-23T19:28:18.102Z,7.60
2018-05-23T19:30:46.380Z,7.07
2018-05-23T19:33:14.652Z,8.13
2018-05-23T19:35:42.899Z,8.10
2018-05-23T19:38:11.927Z,5.77
2018-05-23T19:40:40.204Z,7.70
2018-05-23T19:43:08.473Z,6.00
2018-05-23T19:45:37.737Z,6.33
2018-05-23T19:48:06.078Z,6.83
2018-05-23T19:50:34.330Z,7.07
2018-05-23T19:53:03.452Z,7.97
2018-05-23T19:55:31.953Z,8.02
2018-05-23T19:58:00.214Z,8.17
2018-05-23T20:00:28.475Z,7.47
2018-05-23T20:02:57.492Z,8.03
2018-05-23T20:05:26.526Z,9.07
2018-05-23T20:07:54.792Z,7.57
2018-05-23T20:10:23.051Z,7.07
2018-05-23T20:12:52.084Z,6.90
2018-05-23T20:15:20.334Z,7.00
2018-05-23T20:17:48.590Z,7.10
2018-05-23T20:20:17.621Z,7.40
2018-05-23T20:22:45.886Z,8.70
2018-05-23T20:25:14.915Z,10.07
2018-05-23T20:27:43.502Z,8.10
2018-05-23T20:30:11.771Z,9.00
2018-05-23T20:32:40.032Z,8.77
2018-05-23T20:35:09.049Z,9.23
2018-05-23T20:37:37.315Z,9.67
2018-05-23T20:40:05.575Z,10.60
2018-05-23T20:42:34.699Z,9.23
2018-05-23T20:45:02.972Z,9.67
2018-05-23T20:47:32.001Z,10.50
2018-05-23T20:50:00.251Z,9.23
2018-05-23T20:52:29.279Z,9.97
2018-05-23T20:54:57.535Z,7.07
2018-05-23T20:57:26.569Z,8.03
2018-05-23T20:59:55.136Z,8.02
2018-05-23T21:02:23.401Z,11.93
2018-05-23T21:04:51.658Z,11.77
2018-05-23T21:07:20.696Z,9.17
2018-05-23T21:09:49.030Z,10.07
2018-05-23T21:12:18.072Z,10.17
2018-05-23T21:14:46.354Z,11.73
2018-05-23T21:17:14.636Z,11.90
2018-05-23T21:19:42.887Z,11.03
2018-05-23T21:22:11.923Z,12.17
2018-05-23T21:24:40.192Z,11.10
2018-05-23T21:27:08.458Z,11.37
2018-05-23T21:29:36.723Z,10.83
2018-05-23T21:32:06.992Z,11.27
2018-05-23T21:34:35.310Z,12.10
2018-05-23T21:37:03.515Z,9.87
2018-05-23T21:39:32.548Z,11.48
2018-05-23T21:42:00.821Z,13.37
2018-05-23T21:44:29.081Z,10.70
2018-05-23T21:46:57.356Z,9.90
2018-05-23T21:49:26.471Z,10.03
2018-05-23T21:51:54.730Z,9.73
2018-05-23T21:54:23.763Z,11.27
2018-05-23T21:56:52.035Z,11.37
2018-05-23T21:59:20.328Z,9.60
2018-05-23T22:01:48.592Z,9.40
2018-05-23T22:04:16.862Z,11.50
2018-05-23T22:06:45.883Z,8.97
2018-05-23T22:09:14.138Z,9.77
2018-05-23T22:11:42.403Z,10.40
2018-05-23T22:14:11.436Z,9.43
2018-05-23T22:16:39.694Z,11.07
2018-05-23T22:19:08.728Z,10.07
2018-05-23T22:21:36.974Z,9.47
2018-05-23T22:24:06.013Z,8.87
2018-05-23T22:26:34.372Z,7.70
2018-05-23T22:29:02.638Z,7.50
2018-05-23T22:31:31.664Z,8.47
2018-05-23T22:33:59.908Z,9.52
2018-05-23T22:36:30.179Z,9.67
2018-05-23T22:38:58.447Z,8.50
2018-05-23T22:41:26.702Z,9.40
2018-05-23T22:43:55.744Z,7.82
2018-05-23T22:46:23.996Z,7.80
2018-05-23T22:48:52.272Z,8.83
2018-05-23T22:51:20.522Z,8.85
2018-05-23T22:53:49.546Z,9.03
2018-05-23T22:56:17.799Z,9.63
2018-05-23T22:58:47.580Z,8.77
2018-05-23T23:01:15.931Z,7.90
2018-05-23T23:03:44.200Z,8.07
2018-05-23T23:06:13.226Z,9.40
2018-05-23T23:08:43.058Z,9.82
2018-05-23T23:11:11.311Z,10.47
2018-05-23T23:13:39.588Z,12.37
2018-05-23T23:16:08.426Z,9.80
2018-05-23T23:18:36.755Z,9.00
2018-05-23T23:21:05.025Z,7.40
2018-05-23T23:23:34.053Z,8.80
2018-05-23T23:26:02.323Z,8.97
2018-05-23T23:28:30.581Z,13.13
2018-05-23T23:30:59.610Z,9.03
2018-05-23T23:33:27.881Z,12.00
2018-05-23T23:35:56.151Z,11.20
2018-05-23T23:38:24.422Z,14.30
2018-05-23T23:40:53.547Z,9.90
2018-05-23T23:43:21.810Z,9.93
2018-05-23T23:45:50.081Z,8.47
2018-05-23T23:48:19.927Z,8.10
2018-05-23T23:50:48.186Z,10.23
2018-05-23T23:53:17.215Z,10.23
2018-05-23T23:55:45.495Z,8.53
2018-05-23T23:58:13.752Z,8.37
